Time;durP1;ratioP1;P1;durP2;ratioP2;P2;SDS_P1;SDS_P2;PMS_P1;PMS_P2;Temp;Humidity;BMP_temperature;BMP_pressure;BME280_temperature;BME280_humidity;BME280_pressure;Samples;Min_cycle;Max_cycle;Signal;HPM_P1;HPM_P2
2022/05/07 00:01:32;;;;;;;6.87;5.50;;;13.50;99.90;;;;;;4966500;28;20196;-83
2022/05/07 00:04:16;;;;;;;7.13;5.33;;;13.40;99.90;;;;;;4972398;28;20309;-84
2022/05/07 00:07:24;;;;;;;10.37;6.27;;;13.50;99.90;;;;;;4968095;28;20188;-84
2022/05/07 00:10:16;;;;;;;7.63;5.70;;;13.40;99.90;;;;;;4954772;28;20316;-83
2022/05/07 00:13:02;;;;;;;10.73;6.07;;;13.40;99.90;;;;;;4982721;28;20256;-83
2022/05/07 00:18:51;;;;;;;7.77;5.90;;;13.40;99.90;;;;;;4980172;28;20220;-83
2022/05/07 00:21:42;;;;;;;6.30;5.70;;;13.30;99.90;;;;;;4966258;28;20189;-84
2022/05/07 00:24:37;;;;;;;7.40;6.03;;;13.30;99.90;;;;;;4968059;28;20269;-84
2022/05/07 00:27:23;;;;;;;9.00;6.47;;;13.30;99.90;;;;;;4967648;28;20265;-83
2022/05/07 00:30:08;;;;;;;8.43;5.90;;;13.30;99.90;;;;;;4979704;28;20280;-83
2022/05/07 00:32:53;;;;;;;6.90;6.30;;;13.20;99.90;;;;;;4968387;28;20217;-83
2022/05/07 00:35:38;;;;;;;8.10;5.87;;;13.20;99.90;;;;;;4968734;28;20198;-84
2022/05/07 00:38:23;;;;;;;7.57;6.27;;;13.20;99.90;;;;;;4970766;28;20263;-83
2022/05/07 00:41:08;;;;;;;12.27;6.83;;;13.30;99.90;;;;;;4963235;28;20213;-84
2022/05/07 00:43:53;;;;;;;9.07;7.13;;;13.30;99.90;;;;;;4967779;28;20272;-83
2022/05/07 00:46:37;;;;;;;12.10;6.63;;;13.30;99.90;;;;;;4967823;28;20197;-83
2022/05/07 00:49:28;;;;;;;8.10;6.67;;;13.30;99.90;;;;;;4966596;28;20208;-83
2022/05/07 00:52:18;;;;;;;20.10;6.90;;;13.20;99.90;;;;;;4960055;28;20770;-83
2022/05/07 00:55:03;;;;;;;7.60;6.33;;;13.20;99.90;;;;;;4964625;28;20224;-83
2022/05/07 00:57:48;;;;;;;10.93;7.17;;;13.20;99.90;;;;;;4962453;28;20286;-84
2022/05/07 01:00:32;;;;;;;10.00;7.20;;;13.20;99.90;;;;;;4964253;28;20758;-84
2022/05/07 01:03:17;;;;;;;10.70;7.30;;;13.20;99.90;;;;;;4965299;28;20217;-83
2022/05/07 01:06:02;;;;;;;10.17;7.13;;;13.20;99.90;;;;;;4960478;28;20193;-83
2022/05/07 01:08:48;;;;;;;12.53;7.17;;;13.10;99.90;;;;;;4965891;28;20545;-84
2022/05/07 01:11:33;;;;;;;7.93;7.07;;;13.10;99.90;;;;;;4962441;28;20193;-83
2022/05/07 01:14:18;;;;;;;8.60;7.23;;;13.10;99.90;;;;;;4961067;28;20268;-83
2022/05/07 01:17:06;;;;;;;9.23;7.00;;;13.00;99.90;;;;;;4974976;28;20233;-83
2022/05/07 01:19:58;;;;;;;8.70;7.80;;;13.00;99.90;;;;;;4960959;28;20204;-84
2022/05/07 01:22:44;;;;;;;12.57;7.27;;;13.00;99.90;;;;;;4980234;28;20220;-84
2022/05/07 01:25:29;;;;;;;8.20;7.20;;;13.00;99.90;;;;;;4967198;28;20243;-83
2022/05/07 01:28:13;;;;;;;9.10;7.00;;;13.00;99.90;;;;;;4966795;28;20228;-83
2022/05/07 01:30:58;;;;;;;10.53;7.63;;;13.00;99.90;;;;;;4965308;28;20622;-83
2022/05/07 01:33:43;;;;;;;8.23;7.17;;;12.90;99.90;;;;;;4962935;28;20297;-84
2022/05/07 01:36:30;;;;;;;10.60;7.90;;;12.90;99.90;;;;;;4978179;28;20197;-84
2022/05/07 01:39:15;;;;;;;10.27;7.80;;;12.90;99.90;;;;;;4965024;28;20264;-83
2022/05/07 01:42:06;;;;;;;11.60;7.77;;;12.90;99.90;;;;;;4964995;28;20256;-84
2022/05/07 01:44:51;;;;;;;12.20;8.27;;;12.80;99.90;;;;;;4968266;28;20293;-83
2022/05/07 01:50:46;;;;;;;9.23;7.97;;;12.70;99.90;;;;;;4978222;28;20231;-84
2022/05/07 01:53:33;;;;;;;8.77;7.50;;;12.70;99.90;;;;;;4955966;28;20244;-83
2022/05/07 01:56:25;;;;;;;8.87;8.07;;;12.70;99.90;;;;;;4961933;28;20204;-83
2022/05/07 01:59:13;;;;;;;12.07;8.20;;;12.70;99.90;;;;;;4970430;28;20202;-83
2022/05/07 02:01:58;;;;;;;10.53;8.30;;;12.60;99.90;;;;;;4965136;28;20564;-83
2022/05/07 02:04:42;;;;;;;9.20;8.10;;;12.60;99.90;;;;;;4962139;28;20192;-83
2022/05/07 02:07:27;;;;;;;13.33;7.93;;;12.60;99.90;;;;;;4965311;28;20280;-83
2022/05/07 02:10:14;;;;;;;8.93;7.50;;;12.50;99.90;;;;;;4968038;28;20224;-84
2022/05/07 02:13:01;;;;;;;14.20;8.37;;;12.50;99.90;;;;;;4972521;28;20256;-84
2022/05/07 02:15:46;;;;;;;9.03;7.70;;;12.60;99.90;;;;;;4972562;28;20185;-84
2022/05/07 02:18:31;;;;;;;10.30;7.33;;;12.50;99.90;;;;;;4971223;28;20251;-84
2022/05/07 02:21:15;;;;;;;11.03;8.10;;;12.50;99.90;;;;;;4970962;28;20181;-84
2022/05/07 02:24:00;;;;;;;10.13;8.00;;;12.40;99.90;;;;;;4971918;28;20232;-84
2022/05/07 02:26:45;;;;;;;10.50;8.57;;;12.40;99.90;;;;;;4972487;28;20193;-86
2022/05/07 02:29:32;;;;;;;11.27;8.87;;;12.40;99.90;;;;;;4971704;28;20188;-83
2022/05/07 02:32:18;;;;;;;10.40;8.13;;;12.40;99.90;;;;;;4974781;28;20209;-83
2022/05/07 02:35:03;;;;;;;12.87;8.30;;;12.30;99.90;;;;;;4974496;28;20193;-83
2022/05/07 02:37:51;;;;;;;10.87;7.77;;;12.30;99.90;;;;;;4971274;28;20217;-83
2022/05/07 02:43:39;;;;;;;8.77;7.87;;;12.20;99.90;;;;;;4985800;28;20299;-83
2022/05/07 02:46:24;;;;;;;11.63;8.37;;;12.20;99.90;;;;;;4970608;28;20204;-84
2022/05/07 02:49:10;;;;;;;8.83;7.70;;;12.20;99.90;;;;;;4972101;28;20197;-83
2022/05/07 02:52:03;;;;;;;11.03;8.47;;;12.30;99.90;;;;;;4968882;28;20544;-84
2022/05/07 02:54:48;;;;;;;11.33;8.20;;;12.20;99.90;;;;;;4975023;28;20185;-83
2022/05/07 02:57:33;;;;;;;10.43;9.20;;;12.20;99.90;;;;;;4973472;28;20266;-83
2022/05/07 03:00:18;;;;;;;9.73;8.30;;;12.20;99.90;;;;;;4972015;28;20253;-84
2022/05/07 03:03:02;;;;;;;10.70;8.33;;;12.20;99.90;;;;;;4970275;28;20225;-83
2022/05/07 03:05:47;;;;;;;13.33;9.00;;;12.20;99.90;;;;;;4971849;28;20194;-84
2022/05/07 03:08:34;;;;;;;9.70;8.70;;;12.20;99.90;;;;;;4969845;28;20258;-83
2022/05/07 03:11:43;;;;;;;14.03;8.47;;;12.20;99.90;;;;;;4967067;28;20721;-83
2022/05/07 03:14:27;;;;;;;10.20;8.70;;;12.20;99.90;;;;;;4973185;28;20228;-83
2022/05/07 03:17:17;;;;;;;9.97;8.17;;;12.20;99.90;;;;;;4973290;28;20263;-82
2022/05/07 03:20:06;;;;;;;10.73;8.63;;;12.20;99.90;;;;;;4976965;28;20325;-84
2022/05/07 03:22:58;;;;;;;9.40;8.37;;;12.20;99.90;;;;;;4987741;28;20244;-83
2022/05/07 03:25:50;;;;;;;14.07;8.93;;;12.20;99.90;;;;;;4971951;28;20240;-85
2022/05/07 03:28:44;;;;;;;11.97;8.53;;;12.30;99.90;;;;;;4970023;28;20181;-83
2022/05/07 03:31:38;;;;;;;11.63;9.27;;;12.20;99.90;;;;;;4970319;28;20229;-83
2022/05/07 03:34:57;;;;;;;12.00;9.10;;;12.20;99.90;;;;;;4960486;28;20257;-84
2022/05/07 03:37:51;;;;;;;13.57;9.13;;;12.20;99.90;;;;;;4967549;28;20293;-83
2022/05/07 03:40:46;;;;;;;9.40;8.40;;;12.20;99.90;;;;;;4965239;28;20193;-84
2022/05/07 03:43:33;;;;;;;10.93;9.10;;;12.20;99.90;;;;;;4966987;28;20226;-83
2022/05/07 03:46:33;;;;;;;11.93;9.20;;;12.20;99.90;;;;;;4968669;28;20724;-83
2022/05/07 03:49:26;;;;;;;15.47;9.97;;;12.20;99.90;;;;;;4968115;28;20196;-83
2022/05/07 03:55:16;;;;;;;9.23;8.23;;;12.20;99.90;;;;;;4983060;28;20216;-84
2022/05/07 03:58:04;;;;;;;11.50;9.43;;;12.20;99.90;;;;;;4973463;28;20270;-83
2022/05/07 04:00:49;;;;;;;11.70;9.27;;;12.20;99.90;;;;;;4968509;28;20204;-83
2022/05/07 04:03:34;;;;;;;11.30;9.67;;;12.20;99.90;;;;;;4971392;28;20253;-84
2022/05/07 04:06:19;;;;;;;14.00;9.60;;;12.20;99.90;;;;;;4964907;28;20198;-82
2022/05/07 04:09:04;;;;;;;11.23;9.97;;;12.20;99.90;;;;;;4973922;28;20215;-83
2022/05/07 04:11:58;;;;;;;12.53;9.57;;;12.20;99.90;;;;;;4969324;28;20202;-83
2022/05/07 04:14:44;;;;;;;14.07;9.50;;;12.20;99.90;;;;;;4971854;28;20332;-83
2022/05/07 04:17:32;;;;;;;11.57;9.77;;;12.30;99.90;;;;;;4972194;28;20259;-83
2022/05/07 04:20:18;;;;;;;16.80;9.90;;;12.30;99.90;;;;;;4972070;28;20208;-82
2022/05/07 04:23:13;;;;;;;14.07;9.77;;;12.30;99.90;;;;;;4970269;28;20223;-83
2022/05/07 04:26:08;;;;;;;14.33;10.60;;;12.30;99.90;;;;;;4968835;28;20189;-83
2022/05/07 04:28:53;;;;;;;13.33;10.07;;;12.30;99.90;;;;;;4973510;28;20212;-83
2022/05/07 04:31:47;;;;;;;14.17;11.00;;;12.30;99.90;;;;;;4965619;28;20232;-83
2022/05/07 04:34:34;;;;;;;14.83;10.63;;;12.30;99.90;;;;;;4970793;28;20245;-83
2022/05/07 04:37:25;;;;;;;12.03;10.00;;;12.40;99.90;;;;;;4967865;28;20237;-83
2022/05/07 04:40:16;;;;;;;13.40;10.50;;;12.30;99.90;;;;;;4968584;28;20189;-83
2022/05/07 04:43:05;;;;;;;14.27;10.07;;;12.40;99.90;;;;;;4963136;28;20241;-83
2022/05/07 04:46:00;;;;;;;14.23;11.07;;;12.40;99.90;;;;;;4968852;28;20257;-83
2022/05/07 04:48:56;;;;;;;12.10;10.53;;;12.40;99.90;;;;;;4967314;28;20269;-84
2022/05/07 04:51:41;;;;;;;13.00;10.73;;;12.50;99.90;;;;;;4970103;28;20552;-83
2022/05/07 04:54:26;;;;;;;15.53;11.23;;;12.40;99.90;;;;;;4968578;28;20201;-83
2022/05/07 04:57:11;;;;;;;13.87;10.67;;;12.50;99.90;;;;;;4969960;28;20219;-83
2022/05/07 05:00:07;;;;;;;16.27;11.43;;;12.50;99.90;;;;;;4968401;28;20661;-82
2022/05/07 05:02:56;;;;;;;14.00;11.77;;;12.50;99.90;;;;;;4969076;28;20269;-83
2022/05/07 05:05:44;;;;;;;12.83;11.43;;;12.50;99.90;;;;;;4965422;28;20317;-84
2022/05/07 05:08:38;;;;;;;14.30;11.57;;;12.60;99.90;;;;;;4966422;28;20180;-83
2022/05/07 05:11:34;;;;;;;20.67;12.27;;;12.60;99.90;;;;;;4959374;28;23686;-84
2022/05/07 05:21:45;;;;;;;19.93;13.03;;;12.70;99.90;;;;;;4946601;28;20248;-83
2022/05/07 05:24:39;;;;;;;26.97;13.13;;;12.70;99.90;;;;;;4969615;28;20193;-83
2022/05/07 05:27:32;;;;;;;22.23;13.20;;;12.70;99.90;;;;;;4968869;28;20236;-82
2022/05/07 05:30:36;;;;;;;27.43;13.80;;;12.80;99.90;;;;;;4970676;28;20355;-85
2022/05/07 05:33:36;;;;;;;18.30;12.90;;;12.80;99.90;;;;;;4971327;28;20293;-85
2022/05/07 05:36:30;;;;;;;20.80;14.20;;;12.80;99.90;;;;;;4981398;28;20743;-86
2022/05/07 05:39:44;;;;;;;22.20;15.33;;;12.90;99.90;;;;;;4967916;28;20208;-86
2022/05/07 05:46:01;;;;;;;18.50;13.60;;;13.10;99.90;;;;;;4943805;28;20200;-86
2022/05/07 05:48:46;;;;;;;18.67;13.97;;;13.20;99.90;;;;;;4979256;28;20325;-85
2022/05/07 05:51:30;;;;;;;15.70;14.00;;;13.20;99.90;;;;;;4964576;28;21029;-84
2022/05/07 05:54:15;;;;;;;18.60;13.63;;;13.30;99.90;;;;;;4981613;28;20278;-84
2022/05/07 05:57:00;;;;;;;20.93;14.73;;;13.30;99.90;;;;;;4960151;28;20192;-83
2022/05/07 05:59:44;;;;;;;20.83;15.03;;;13.30;99.90;;;;;;4964225;28;20248;-83
2022/05/07 06:02:29;;;;;;;21.20;15.47;;;13.40;99.90;;;;;;4964373;28;20864;-83
2022/05/07 06:05:15;;;;;;;22.20;15.23;;;13.40;99.90;;;;;;4967029;28;20184;-83
2022/05/07 06:07:59;;;;;;;18.80;14.47;;;13.50;99.90;;;;;;4959575;28;20253;-84
2022/05/07 06:10:44;;;;;;;21.50;15.63;;;13.50;99.90;;;;;;4962095;28;20406;-83
2022/05/07 06:13:31;;;;;;;20.40;15.47;;;13.60;99.90;;;;;;4964191;28;20216;-83
2022/05/07 06:16:17;;;;;;;19.33;15.77;;;13.60;99.90;;;;;;4966086;28;20240;-82
2022/05/07 06:19:01;;;;;;;19.10;15.43;;;13.70;99.90;;;;;;4976600;28;20264;-83
2022/05/07 06:21:46;;;;;;;20.63;15.40;;;13.80;99.90;;;;;;4961913;28;20248;-80
2022/05/07 06:27:34;;;;;;;18.37;15.13;;;13.90;99.90;;;;;;4975075;28;20252;-82
2022/05/07 06:30:18;;;;;;;18.93;15.87;;;13.90;99.90;;;;;;4961459;28;20200;-84
2022/05/07 06:33:03;;;;;;;21.20;16.43;;;14.00;99.90;;;;;;4958029;28;20703;-81
2022/05/07 06:35:48;;;;;;;21.10;16.47;;;14.00;99.90;;;;;;4973107;28;20194;-82
2022/05/07 06:38:33;;;;;;;20.90;15.90;;;14.10;99.90;;;;;;4958262;28;20205;-83
2022/05/07 06:41:18;;;;;;;27.80;16.97;;;14.20;99.90;;;;;;4955598;28;20653;-83
2022/05/07 06:44:02;;;;;;;27.30;17.97;;;14.20;99.90;;;;;;4961756;28;20287;-83
2022/05/07 06:46:50;;;;;;;35.17;17.43;;;14.30;99.90;;;;;;4962043;28;20193;-83
2022/05/07 06:49:34;;;;;;;30.10;16.20;;;14.40;99.90;;;;;;4976174;28;20201;-83
2022/05/07 06:52:18;;;;;;;28.90;16.93;;;14.60;99.90;;;;;;4974405;28;20231;-81
2022/05/07 06:55:03;;;;;;;23.07;16.23;;;14.70;99.90;;;;;;4959038;28;20192;-82
2022/05/07 06:57:48;;;;;;;23.17;16.90;;;14.80;99.90;;;;;;4971892;28;20216;-83
2022/05/07 07:00:32;;;;;;;25.23;17.63;;;14.80;99.90;;;;;;4961892;28;20202;-83
2022/05/07 07:03:17;;;;;;;21.10;17.23;;;14.90;99.90;;;;;;4961338;28;20265;-83
2022/05/07 07:06:02;;;;;;;23.10;16.53;;;15.00;99.90;;;;;;4973061;28;20189;-84
2022/05/07 07:08:48;;;;;;;25.73;18.33;;;15.10;99.90;;;;;;4973889;28;20205;-83
2022/05/07 07:11:34;;;;;;;20.77;18.20;;;15.20;99.90;;;;;;4961536;28;20257;-83
2022/05/07 07:14:18;;;;;;;29.23;18.67;;;15.20;99.90;;;;;;4954661;28;20240;-83
2022/05/07 07:17:03;;;;;;;25.77;19.10;;;15.20;99.90;;;;;;4962189;28;20193;-83
2022/05/07 07:19:48;;;;;;;23.47;18.33;;;15.30;99.90;;;;;;4959968;28;20276;-83
2022/05/07 07:22:32;;;;;;;28.33;18.67;;;15.30;99.90;;;;;;4957626;28;20220;-83
2022/05/07 07:25:17;;;;;;;26.23;18.30;;;15.40;99.90;;;;;;4961026;28;20237;-83
2022/05/07 07:28:01;;;;;;;23.67;18.53;;;15.50;99.90;;;;;;4961393;28;20201;-83
2022/05/07 07:30:46;;;;;;;24.67;19.13;;;15.50;99.90;;;;;;4960262;28;20664;-83
2022/05/07 07:33:31;;;;;;;22.53;18.70;;;15.60;99.90;;;;;;4957766;28;20265;-83
2022/05/07 07:36:15;;;;;;;25.37;18.17;;;15.60;99.90;;;;;;4963090;28;20275;-81
2022/05/07 07:39:04;;;;;;;23.70;18.23;;;15.70;99.90;;;;;;4959408;28;20278;-83
2022/05/07 07:41:48;;;;;;;22.23;15.93;;;15.80;99.90;;;;;;4957649;28;20578;-81
2022/05/07 07:44:33;;;;;;;19.77;15.83;;;15.90;99.90;;;;;;4955263;28;20200;-81
2022/05/07 07:50:20;;;;;;;21.33;15.47;;;16.10;99.90;;;;;;4977417;28;20205;-75
2022/05/07 07:53:09;;;;;;;22.20;16.07;;;16.20;99.90;;;;;;4961438;28;20221;-76
2022/05/07 07:55:54;;;;;;;23.00;14.37;;;16.30;99.90;;;;;;4960510;28;20249;-81
2022/05/07 07:58:39;;;;;;;18.87;13.97;;;16.40;99.90;;;;;;4963561;28;20217;-82
2022/05/07 08:01:23;;;;;;;22.37;15.00;;;16.60;99.90;;;;;;4966534;28;20176;-79
2022/05/07 08:04:09;;;;;;;24.30;14.33;;;16.60;99.90;;;;;;4959485;28;20260;-78
2022/05/07 08:13:00;;;;;;;23.27;13.47;;;16.80;99.90;;;;;;4980156;28;20267;-85
2022/05/07 08:15:45;;;;;;;20.27;11.87;;;16.90;99.90;;;;;;4962745;28;20228;-85
2022/05/07 08:18:30;;;;;;;18.73;11.87;;;16.90;99.90;;;;;;4963804;28;20256;-86
2022/05/07 08:21:15;;;;;;;15.03;11.33;;;17.10;99.90;;;;;;4968676;28;20763;-83
2022/05/07 08:24:00;;;;;;;16.60;11.57;;;17.30;99.90;;;;;;4973621;28;20273;-84
2022/05/07 08:26:45;;;;;;;19.40;12.20;;;17.40;99.90;;;;;;4970707;28;20233;-83
2022/05/07 08:29:29;;;;;;;21.60;11.40;;;17.60;99.90;;;;;;4972160;28;20259;-82
2022/05/07 08:32:14;;;;;;;16.73;11.30;;;17.60;99.90;;;;;;4968861;28;20268;-83
2022/05/07 08:34:59;;;;;;;16.07;11.63;;;17.60;99.90;;;;;;4973460;28;20180;-82
2022/05/07 08:37:44;;;;;;;17.00;12.00;;;17.70;99.90;;;;;;4973586;28;20206;-82
2022/05/07 08:40:28;;;;;;;20.10;11.40;;;17.70;99.90;;;;;;4988403;28;20192;-83
2022/05/07 08:43:15;;;;;;;16.47;11.53;;;17.80;99.90;;;;;;4972671;28;20244;-82
2022/05/07 08:45:59;;;;;;;17.50;11.13;;;17.90;99.90;;;;;;4969362;28;20297;-82
2022/05/07 08:48:50;;;;;;;18.93;11.23;;;18.00;99.90;;;;;;4972224;28;20192;-85
2022/05/07 08:51:35;;;;;;;18.80;10.52;;;18.10;99.90;;;;;;4971511;28;20208;-82
2022/05/07 08:54:22;;;;;;;13.53;9.20;;;18.20;99.90;;;;;;4971829;28;20233;-81
2022/05/07 08:57:07;;;;;;;16.37;10.87;;;18.30;99.90;;;;;;4966555;28;20592;-82
2022/05/07 08:59:52;;;;;;;15.20;11.03;;;18.40;99.90;;;;;;4966337;28;20267;-82
2022/05/07 09:02:45;;;;;;;14.20;10.48;;;18.40;99.90;;;;;;4968116;28;20221;-82
2022/05/07 09:05:38;;;;;;;14.90;9.47;;;18.50;99.90;;;;;;4979770;28;20255;-82
2022/05/07 09:08:47;;;;;;;10.00;7.77;;;18.50;99.90;;;;;;4966187;28;20217;-83
2022/05/07 09:11:44;;;;;;;15.63;9.32;;;18.60;99.90;;;;;;4964265;28;20244;-85
2022/05/07 09:14:41;;;;;;;16.17;9.38;;;18.70;99.90;;;;;;4977637;28;20197;-82
2022/05/07 09:17:30;;;;;;;17.20;9.32;;;18.70;99.90;;;;;;4979514;28;20348;-81
2022/05/07 09:20:26;;;;;;;14.40;9.20;;;18.80;99.90;;;;;;4965901;28;20209;-82
2022/05/07 09:23:15;;;;;;;13.70;8.88;;;18.80;99.90;;;;;;4964171;28;20278;-80
2022/05/07 09:26:14;;;;;;;12.00;8.27;;;18.90;99.90;;;;;;4962044;28;20202;-83
2022/05/07 09:29:05;;;;;;;13.13;7.53;;;18.90;99.90;;;;;;4963790;28;20196;-84
2022/05/07 09:32:00;;;;;;;;;;;;;;;;;;;;;
2022/05/07 09:38:05;;;;;;;11.60;7.45;;;19.10;99.90;;;;;;4987618;28;20218;-83
2022/05/07 09:41:00;;;;;;;9.73;6.97;;;19.00;99.90;;;;;;4983984;28;20273;-83
2022/05/07 09:44:03;;;;;;;14.93;7.47;;;19.20;99.90;;;;;;4966887;28;20221;-83
2022/05/07 09:46:52;;;;;;;12.25;7.85;;;19.20;99.90;;;;;;4970497;28;20570;-83
2022/05/07 09:59:12;;;;;;;14.75;8.27;;;19.40;99.90;;;;;;4981041;28;20220;-83
2022/05/07 10:02:40;;;;;;;11.90;8.65;;;19.50;99.90;;;;;;4968118;28;20193;-82
2022/05/07 10:05:46;;;;;;;15.57;8.27;;;19.50;99.90;;;;;;4961897;28;20213;-83
2022/05/07 10:09:20;;;;;;;10.77;8.05;;;19.50;99.90;;;;;;4969824;28;20225;-83
2022/05/07 10:12:08;;;;;;;11.60;7.18;;;19.50;99.90;;;;;;4964982;28;20220;-83
2022/05/07 10:15:06;;;;;;;11.85;7.35;;;19.50;99.90;;;;;;4964847;28;20225;-82
2022/05/07 10:18:14;;;;;;;11.63;8.02;;;19.50;99.90;;;;;;4968890;28;20357;-83
2022/05/07 10:21:24;;;;;;;12.75;6.50;;;19.50;99.90;;;;;;4981283;28;20650;-83
2022/05/07 10:24:19;;;;;;;9.55;6.53;;;19.50;99.90;;;;;;4967976;28;20201;-84
2022/05/07 10:27:22;;;;;;;8.07;6.63;;;19.60;99.90;;;;;;4981209;28;20667;-82
2022/05/07 10:30:19;;;;;;;13.15;6.70;;;19.70;99.90;;;;;;4969261;28;20421;-82
2022/05/07 10:33:11;;;;;;;15.13;6.93;;;19.80;99.90;;;;;;4973194;28;20196;-82
2022/05/07 10:36:23;;;;;;;9.10;5.88;;;19.80;99.90;;;;;;4971964;28;20229;-83
2022/05/07 10:39:19;;;;;;;8.77;5.47;;;19.80;99.90;;;;;;4956792;28;20245;-84
2022/05/07 10:42:27;;;;;;;11.43;5.82;;;19.90;99.90;;;;;;4981990;28;20253;-83
2022/05/07 10:45:42;;;;;;;10.90;5.38;;;19.90;99.90;;;;;;4968378;28;20248;-82
2022/05/07 10:48:52;;;;;;;12.77;5.35;;;20.00;99.90;;;;;;4967025;28;20196;-83
2022/05/07 10:51:56;;;;;;;7.95;5.05;;;20.00;99.90;;;;;;4970238;28;20237;-82
2022/05/07 10:54:54;;;;;;;13.32;5.22;;;20.00;99.90;;;;;;4961021;28;20660;-82
2022/05/07 10:57:56;;;;;;;10.85;5.38;;;20.10;99.90;;;;;;4981362;28;20832;-83
2022/05/07 11:00:48;;;;;;;9.50;5.43;;;20.10;99.90;;;;;;4957497;28;20189;-83
2022/05/07 11:03:42;;;;;;;9.23;5.28;;;20.00;99.90;;;;;;4967604;28;21016;-86
2022/05/07 11:07:01;;;;;;;9.18;5.20;;;20.10;99.90;;;;;;4982844;28;20643;-82
2022/05/07 11:09:54;;;;;;;11.57;5.57;;;20.10;99.90;;;;;;4981439;28;20453;-83
2022/05/07 11:12:40;;;;;;;8.98;4.60;;;20.10;99.90;;;;;;4972270;28;20212;-83
2022/05/07 11:15:53;;;;;;;;;;;;;;;;;;;;;
2022/05/07 11:18:58;;;;;;;6.82;4.40;;;20.20;99.90;;;;;;4985916;28;20690;-83
2022/05/07 11:22:10;;;;;;;8.52;4.78;;;20.20;99.90;;;;;;4969601;28;20334;-86
2022/05/07 11:25:30;;;;;;;8.55;4.38;;;20.30;99.90;;;;;;4970506;28;20604;-82
2022/05/07 11:28:19;;;;;;;6.82;4.40;;;20.40;99.90;;;;;;4969171;28;20605;-84
2022/05/07 11:31:10;;;;;;;10.90;4.88;;;20.40;99.90;;;;;;4982678;28;20228;-82
2022/05/07 11:37:50;;;;;;;12.55;5.35;;;20.60;99.90;;;;;;4980875;28;20248;-85
2022/05/07 11:40:35;;;;;;;6.63;4.95;;;20.80;99.90;;;;;;4969251;28;20713;-82
2022/05/07 11:46:52;;;;;;;7.07;4.53;;;20.80;99.90;;;;;;4979723;28;20225;-81
2022/05/07 11:49:36;;;;;;;7.85;4.97;;;20.90;99.90;;;;;;4964566;28;20268;-81
2022/05/07 11:52:30;;;;;;;11.52;5.25;;;20.90;99.90;;;;;;4966333;28;20355;-82
2022/05/07 11:55:17;;;;;;;10.77;5.45;;;21.00;99.90;;;;;;4963523;28;20192;-82
2022/05/07 11:58:21;;;;;;;9.23;5.95;;;21.00;99.90;;;;;;4967089;28;20209;-81
2022/05/07 12:01:21;;;;;;;9.32;6.10;;;21.00;99.90;;;;;;4968478;28;20189;-81
2022/05/07 12:04:09;;;;;;;10.63;5.90;;;20.90;99.90;;;;;;4967779;28;20217;-81
2022/05/07 12:06:57;;;;;;;9.27;5.38;;;20.90;99.90;;;;;;4967843;28;20196;-82
2022/05/07 12:09:41;;;;;;;9.90;5.60;;;20.90;99.90;;;;;;4982280;28;20192;-81
2022/05/07 12:12:26;;;;;;;7.25;5.78;;;20.90;99.90;;;;;;4966353;28;20225;-82
2022/05/07 12:15:11;;;;;;;11.10;6.15;;;20.90;99.90;;;;;;4967067;28;20204;-81
2022/05/07 12:17:56;;;;;;;10.23;6.63;;;20.80;99.90;;;;;;4962711;28;20213;-81
2022/05/07 12:20:41;;;;;;;8.13;7.03;;;20.80;99.90;;;;;;4966807;28;20244;-82
2022/05/07 12:29:50;;;;;;;15.95;8.45;;;20.70;99.90;;;;;;4980967;28;20679;-83
2022/05/07 12:32:34;;;;;;;12.25;8.35;;;20.70;99.90;;;;;;4964600;28;20225;-85
2022/05/07 12:35:19;;;;;;;17.67;9.07;;;20.80;99.90;;;;;;4964879;28;20252;-83
2022/05/07 12:38:06;;;;;;;11.90;8.63;;;20.80;99.90;;;;;;4969379;28;20220;-84
2022/05/07 12:40:51;;;;;;;11.88;8.20;;;20.80;99.90;;;;;;4961470;28;20198;-83
2022/05/07 12:43:36;;;;;;;12.18;7.70;;;20.90;99.90;;;;;;4965339;28;20213;-83
2022/05/07 12:46:21;;;;;;;10.52;8.02;;;20.90;99.90;;;;;;4963919;28;20211;-83
2022/05/07 12:49:06;;;;;;;11.63;8.18;;;20.90;99.90;;;;;;4965660;28;20280;-79
2022/05/07 12:51:56;;;;;;;13.50;8.00;;;21.00;99.90;;;;;;4967506;28;20189;-81
2022/05/07 12:54:41;;;;;;;10.73;7.88;;;21.10;99.90;;;;;;4969656;28;20232;-84
2022/05/07 12:57:27;;;;;;;11.25;7.65;;;21.20;99.90;;;;;;4965731;28;20193;-84
2022/05/07 13:00:15;;;;;;;14.32;7.65;;;21.30;99.90;;;;;;4967859;28;20232;-84
2022/05/07 13:03:01;;;;;;;13.13;7.22;;;21.40;99.90;;;;;;4959983;28;20573;-84
2022/05/07 13:05:46;;;;;;;14.10;7.18;;;21.50;99.90;;;;;;4968935;28;20193;-84
2022/05/07 13:08:31;;;;;;;14.60;7.20;;;21.40;99.90;;;;;;4965902;28;20580;-85
2022/05/07 13:11:16;;;;;;;8.73;6.65;;;21.30;99.90;;;;;;4968444;28;20731;-84
2022/05/07 13:14:01;;;;;;;12.07;8.52;;;21.20;99.90;;;;;;4965382;28;20318;-83
2022/05/07 13:16:48;;;;;;;14.75;9.40;;;21.20;99.90;;;;;;4965233;28;20228;-83
2022/05/07 13:19:33;;;;;;;12.38;9.27;;;21.00;99.90;;;;;;4967987;28;20213;-84
2022/05/07 13:22:18;;;;;;;15.88;9.35;;;20.80;99.90;;;;;;4960856;28;20205;-85
2022/05/07 13:25:04;;;;;;;10.77;9.55;;;20.70;99.90;;;;;;4965254;28;20253;-84
2022/05/07 13:27:49;;;;;;;14.98;11.27;;;20.60;99.90;;;;;;4965891;28;20244;-84
2022/05/07 13:30:34;;;;;;;13.57;10.43;;;20.40;99.90;;;;;;4963218;28;20333;-84
2022/05/07 13:33:25;;;;;;;13.00;10.90;;;20.30;99.90;;;;;;4979467;28;20256;-83
2022/05/07 13:36:09;;;;;;;16.30;11.00;;;20.20;99.90;;;;;;4965921;28;20188;-83
2022/05/07 13:38:55;;;;;;;13.20;10.65;;;20.10;99.90;;;;;;4967897;28;20208;-82
2022/05/07 13:41:40;;;;;;;14.73;11.00;;;20.00;99.90;;;;;;4967454;28;20663;-83
2022/05/07 13:44:24;;;;;;;14.23;11.38;;;20.00;99.90;;;;;;4968769;28;20196;-82
2022/05/07 13:47:09;;;;;;;13.30;11.30;;;19.90;99.90;;;;;;4962527;28;20193;-83
2022/05/07 13:49:53;;;;;;;14.60;11.32;;;19.70;99.90;;;;;;4961040;28;20201;-82
2022/05/07 13:52:39;;;;;;;12.57;11.20;;;19.70;99.90;;;;;;4965855;28;20261;-82
2022/05/07 13:55:24;;;;;;;15.05;10.70;;;19.70;99.90;;;;;;4964716;28;20249;-82
2022/05/07 13:58:09;;;;;;;11.63;9.55;;;19.70;99.90;;;;;;4964024;28;20212;-82
2022/05/07 14:00:54;;;;;;;15.77;11.80;;;19.70;99.90;;;;;;4978393;28;21471;-82
2022/05/07 14:03:39;;;;;;;15.30;11.77;;;19.60;99.90;;;;;;4963478;28;20221;-82
2022/05/07 14:06:24;;;;;;;16.88;10.60;;;19.60;99.90;;;;;;4964289;28;20283;-82
2022/05/07 14:09:09;;;;;;;4.72;3.13;;;19.50;99.90;;;;;;4961615;28;20684;-82
2022/05/07 14:11:53;;;;;;;6.70;2.67;;;19.30;99.90;;;;;;4961014;28;20248;-82
2022/05/07 14:14:37;;;;;;;9.07;5.15;;;19.20;99.90;;;;;;4960754;28;20554;-83
2022/05/07 14:17:22;;;;;;;8.27;4.72;;;19.00;99.90;;;;;;4964068;28;20304;-83
2022/05/07 14:20:07;;;;;;;4.88;4.00;;;18.80;99.90;;;;;;4962372;28;20244;-85
2022/05/07 14:22:53;;;;;;;8.07;5.07;;;18.70;99.90;;;;;;4959550;28;20812;-86
2022/05/07 14:25:38;;;;;;;10.40;6.37;;;18.80;99.90;;;;;;4975638;28;20411;-86
2022/05/07 14:28:23;;;;;;;6.55;5.60;;;18.80;99.90;;;;;;4962737;28;20217;-86
2022/05/07 14:31:07;;;;;;;7.68;6.68;;;18.80;99.90;;;;;;4962801;28;20198;-85
2022/05/07 14:33:52;;;;;;;11.70;6.70;;;18.80;99.90;;;;;;4964890;28;20272;-86
2022/05/07 14:36:37;;;;;;;13.55;6.43;;;18.70;99.90;;;;;;4963585;28;20228;-85
2022/05/07 14:39:22;;;;;;;9.67;5.90;;;18.70;99.90;;;;;;4962093;28;20233;-85
2022/05/07 14:42:07;;;;;;;11.20;8.13;;;18.70;99.90;;;;;;4967810;28;20417;-85
2022/05/07 14:44:52;;;;;;;11.48;8.15;;;18.80;99.90;;;;;;4966219;28;20198;-88
2022/05/07 14:47:38;;;;;;;9.73;8.05;;;18.70;99.90;;;;;;4968047;28;20192;-86
2022/05/07 14:50:24;;;;;;;13.15;9.07;;;18.60;99.90;;;;;;4963201;28;20688;-88
2022/05/07 14:53:09;;;;;;;14.27;9.73;;;18.60;99.90;;;;;;4967714;28;20213;-88
2022/05/07 14:55:53;;;;;;;14.00;10.10;;;18.60;99.90;;;;;;4963376;28;20285;-88
2022/05/07 14:58:38;;;;;;;13.15;10.00;;;18.60;99.90;;;;;;4963011;28;20236;-88
2022/05/07 15:01:23;;;;;;;11.73;9.30;;;18.50;99.90;;;;;;4965656;28;20189;-88
2022/05/07 15:04:08;;;;;;;12.97;9.53;;;18.40;99.90;;;;;;4962946;28;20240;-88
2022/05/07 15:06:52;;;;;;;14.10;9.77;;;18.40;99.90;;;;;;4964067;28;20197;-88
2022/05/07 15:12:41;;;;;;;12.30;9.47;;;18.40;99.90;;;;;;4980645;28;20249;-88
2022/05/07 15:15:25;;;;;;;10.57;8.37;;;18.30;99.90;;;;;;4976117;28;20194;-88
2022/05/07 15:18:09;;;;;;;11.90;10.10;;;18.30;99.90;;;;;;4963405;28;20941;-90
2022/05/07 15:20:54;;;;;;;12.52;10.57;;;18.30;99.90;;;;;;4967319;28;21228;-88
2022/05/07 15:23:39;;;;;;;14.23;11.33;;;18.30;99.90;;;;;;4968919;28;20421;-88
2022/05/07 15:26:23;;;;;;;14.10;11.33;;;18.30;99.90;;;;;;4969655;28;20671;-87
2022/05/07 15:29:09;;;;;;;14.77;12.07;;;18.30;99.90;;;;;;4966087;28;20488;-88
2022/05/07 15:38:00;;;;;;;11.07;9.60;;;18.20;99.90;;;;;;4978390;28;20427;-88
2022/05/07 15:40:45;;;;;;;10.73;7.75;;;18.20;99.90;;;;;;4969469;28;20224;-88